Time;durP1;ratioP1;P1;durP2;ratioP2;P2;SDS_P1;SDS_P2;PMS_P1;PMS_P2;Temp;Humidity;BMP_temperature;BMP_pressure;BME280_temperature;BME280_humidity;BME280_pressure;Samples;Min_cycle;Max_cycle;Signal;HPM_P1;HPM_P2
2023/12/27 00:02:42;;;;;;;10.70;9.70;;;;;;;22.44;32.49;95364.94;6134349;28;109229;-58
2023/12/27 00:05:47;;;;;;;11.20;10.00;;;;;;;22.42;32.01;95371.38;6131296;28;109331;-57
2023/12/27 00:08:50;;;;;;;10.37;9.23;;;;;;;22.43;32.10;95377.50;6135493;28;109147;-56
2023/12/27 00:11:53;;;;;;;11.23;9.53;;;;;;;22.44;32.63;95375.63;6134379;28;110180;-57
2023/12/27 00:14:56;;;;;;;9.93;8.93;;;;;;;22.43;32.29;95377.50;6103571;28;109380;-58
2023/12/27 00:17:59;;;;;;;10.53;9.53;;;;;;;22.43;32.51;95380.16;6116430;28;109415;-57
2023/12/27 00:21:05;;;;;;;10.60;9.10;;;;;;;22.42;32.64;95384.72;6133316;28;110153;-58
2023/12/27 00:24:08;;;;;;;9.83;8.83;;;;;;;22.42;32.45;95383.91;6119223;28;109024;-60
2023/12/27 00:27:11;;;;;;;10.03;9.13;;;;;;;22.42;32.19;95386.59;6125699;28;110218;-79
2023/12/27 00:30:15;;;;;;;10.37;9.47;;;;;;;22.40;32.20;95394.09;6136999;28;109236;-57
2023/12/27 00:33:18;;;;;;;10.07;9.00;;;;;;;22.41;32.33;95403.69;6137134;28;109090;-56
2023/12/27 00:36:29;;;;;;;9.70;8.80;;;;;;;22.40;31.95;95407.44;6135912;28;109120;-57
2023/12/27 00:39:34;;;;;;;10.30;9.27;;;;;;;22.40;32.52;95396.78;6107574;28;109294;-57
2023/12/27 00:42:37;;;;;;;11.33;9.50;;;;;;;22.40;32.47;95415.44;6111803;28;109048;-57
2023/12/27 00:45:40;;;;;;;9.57;8.67;;;;;;;22.42;32.30;95418.59;6113427;28;109135;-56
2023/12/27 00:48:43;;;;;;;9.90;8.93;;;;;;;22.43;31.96;95420.16;6118251;28;109845;-57
2023/12/27 00:51:48;;;;;;;9.37;8.47;;;;;;;22.42;32.29;95430.03;6125489;28;109010;-58
2023/12/27 00:54:53;;;;;;;9.20;8.40;;;;;;;22.42;32.16;95430.03;6112196;28;109110;-56
2023/12/27 00:57:57;;;;;;;8.90;8.00;;;;;;;22.43;32.58;95428.16;6112819;28;109240;-58
2023/12/27 01:01:01;;;;;;;8.37;7.57;;;;;;;22.41;32.27;95423.13;6104442;28;110319;-58
2023/12/27 01:04:04;;;;;;;10.33;9.30;;;;;;;22.42;32.63;95442.59;6136942;28;108924;-58
2023/12/27 01:07:09;;;;;;;8.93;8.07;;;;;;;22.41;32.05;95441.00;6135876;28;109264;-58
2023/12/27 01:10:14;;;;;;;8.57;7.70;;;;;;;22.41;32.20;95422.34;6134605;28;109075;-58
2023/12/27 01:13:17;;;;;;;9.50;8.53;;;;;;;22.41;31.94;95436.47;6125423;28;109795;-58
2023/12/27 01:16:20;;;;;;;9.20;8.20;;;;;;;22.39;32.17;95435.97;6136718;28;110010;-57
2023/12/27 01:19:24;;;;;;;8.37;7.47;;;;;;;22.39;32.23;95441.31;6120980;28;108995;-58
2023/12/27 01:22:28;;;;;;;9.37;8.47;;;;;;;22.38;32.18;95422.94;6114358;28;109020;-58
2023/12/27 01:25:31;;;;;;;9.87;8.50;;;;;;;22.36;32.61;95433.91;6130887;28;109177;-79
2023/12/27 01:28:34;;;;;;;8.30;7.50;;;;;;;22.35;31.96;95439.53;6136254;28;109174;-57
2023/12/27 01:31:37;;;;;;;8.43;7.63;;;;;;;22.35;32.29;95421.66;6119542;28;109134;-58
2023/12/27 01:34:40;;;;;;;8.90;7.53;;;;;;;22.35;31.98;95431.53;6106368;28;110537;-58
2023/12/27 01:37:45;;;;;;;9.60;8.40;;;;;;;22.34;32.47;95437.94;6136164;28;109102;-58
2023/12/27 01:40:49;;;;;;;8.90;7.90;;;;;;;22.34;32.14;95435.28;6125799;28;109118;-58
2023/12/27 01:43:52;;;;;;;8.83;7.80;;;;;;;22.34;31.99;95438.72;6131449;28;110114;-58
2023/12/27 01:46:55;;;;;;;8.30;7.50;;;;;;;22.34;32.03;95445.94;6101167;28;110180;-58
2023/12/27 01:49:58;;;;;;;8.63;7.73;;;;;;;22.34;31.87;95448.59;6117918;28;109134;-58
2023/12/27 01:53:03;;;;;;;8.37;7.57;;;;;;;22.34;32.17;95445.94;6135742;28;109413;-58
2023/12/27 01:56:07;;;;;;;8.37;7.43;;;;;;;22.33;31.91;95452.34;6134369;28;109189;-58
2023/12/27 01:59:11;;;;;;;8.00;7.30;;;;;;;22.31;32.36;95455.31;6125707;28;110179;-58
2023/12/27 02:02:14;;;;;;;7.30;6.60;;;;;;;22.33;32.37;95455.03;6129561;28;109124;-57
2023/12/27 02:05:17;;;;;;;8.40;6.77;;;;;;;22.33;31.80;95463.03;6134935;28;109260;-71
2023/12/27 02:08:22;;;;;;;7.73;7.03;;;;;;;22.32;31.82;95454.22;6122782;28;109291;-58
2023/12/27 02:11:25;;;;;;;8.47;7.67;;;;;;;22.31;32.44;95446.53;6127900;28;109371;-57
2023/12/27 02:14:28;;;;;;;7.27;6.57;;;;;;;22.31;31.99;95451.88;6133986;28;110078;-57
2023/12/27 02:17:33;;;;;;;9.17;7.13;;;;;;;22.30;32.41;95463.63;6135613;28;109939;-57
2023/12/27 02:20:36;;;;;;;6.93;6.23;;;;;;;22.30;32.11;95455.63;6104578;28;110055;-57
2023/12/27 02:23:43;;;;;;;6.63;6.03;;;;;;;22.29;31.85;95459.38;6111288;28;109233;-57
2023/12/27 02:26:48;;;;;;;8.03;7.23;;;;;;;22.28;31.86;95458.59;6130739;28;110273;-57
2023/12/27 02:29:51;;;;;;;7.30;6.40;;;;;;;22.27;32.27;95462.34;6131275;28;109749;-57
2023/12/27 02:32:54;;;;;;;6.83;6.13;;;;;;;22.28;31.75;95458.59;6116937;28;109422;-57
2023/12/27 02:35:57;;;;;;;7.00;6.27;;;;;;;22.27;32.21;95457.00;6137506;28;110193;-57
2023/12/27 02:39:00;;;;;;;7.03;6.43;;;;;;;22.28;32.28;95458.59;6139241;28;109233;-57
2023/12/27 02:42:05;;;;;;;8.33;7.53;;;;;;;22.28;32.20;95463.91;6128008;28;109016;-59
2023/12/27 02:45:09;;;;;;;7.07;6.37;;;;;;;22.28;31.93;95468.47;6108880;28;109095;-57
2023/12/27 02:48:12;;;;;;;7.57;6.87;;;;;;;22.28;32.24;95460.47;6137067;28;110109;-57
2023/12/27 02:51:15;;;;;;;7.33;6.63;;;;;;;22.27;32.13;95465.00;6137969;28;109091;-57
2023/12/27 02:54:18;;;;;;;6.60;6.00;;;;;;;22.26;31.58;95462.63;6128401;28;109062;-58
2023/12/27 02:57:23;;;;;;;8.57;6.43;;;;;;;22.26;32.19;95460.75;6127964;28;109236;-56
2023/12/27 03:00:26;;;;;;;6.70;6.10;;;;;;;22.24;32.23;95462.16;6138836;28;109103;-57
2023/12/27 03:03:29;;;;;;;6.80;6.10;;;;;;;22.23;32.19;95464.03;6138450;28;110075;-56
2023/12/27 03:06:33;;;;;;;6.67;6.07;;;;;;;22.23;31.75;95461.34;6119551;28;109176;-56
2023/12/27 03:09:36;;;;;;;6.97;6.20;;;;;;;22.21;31.61;95465.41;6114464;28;108838;-57
2023/12/27 03:12:41;;;;;;;7.20;6.50;;;;;;;22.21;32.30;95476.88;6130656;28;110117;-57
2023/12/27 03:15:44;;;;;;;6.70;6.10;;;;;;;22.22;32.19;95477.66;6113803;28;108983;-58
2023/12/27 03:18:47;;;;;;;6.60;6.00;;;;;;;22.20;31.81;95483.28;6112875;28;109189;-57
2023/12/27 03:21:51;;;;;;;7.43;6.73;;;;;;;22.21;32.11;95481.41;6138460;28;109365;-58
2023/12/27 03:24:54;;;;;;;7.20;6.50;;;;;;;22.19;31.68;95476.38;6138508;28;109301;-59
2023/12/27 03:27:58;;;;;;;7.03;6.33;;;;;;;22.22;31.46;95488.31;6111267;28;108798;-58
2023/12/27 03:31:01;;;;;;;7.50;6.80;;;;;;;22.20;32.06;95483.28;6120641;28;109081;-57
2023/12/27 03:34:05;;;;;;;7.30;6.60;;;;;;;22.20;31.49;95493.16;6137519;28;110187;-58
2023/12/27 03:37:08;;;;;;;8.03;6.60;;;;;;;22.21;31.68;95503.53;6137467;28;110668;-57
2023/12/27 03:40:12;;;;;;;7.27;6.63;;;;;;;22.20;31.52;95496.59;6126028;28;109229;-58
2023/12/27 03:43:17;;;;;;;7.10;6.40;;;;;;;22.20;32.01;95509.94;6115194;28;110339;-58
2023/12/27 03:46:20;;;;;;;7.57;6.87;;;;;;;22.19;31.52;95503.03;6122528;28;110967;-57
2023/12/27 03:49:23;;;;;;;6.80;6.10;;;;;;;22.18;31.69;95506.78;6126349;28;109366;-58
2023/12/27 03:52:26;;;;;;;7.30;6.53;;;;;;;22.18;32.03;95511.28;6115581;28;109084;-58
2023/12/27 03:55:29;;;;;;;6.87;6.23;;;;;;;22.17;31.49;95509.72;6136859;28;109094;-58
2023/12/27 03:58:34;;;;;;;7.70;6.90;;;;;;;22.16;31.55;95505.47;6118994;28;110063;-58
2023/12/27 04:01:37;;;;;;;7.70;6.80;;;;;;;22.16;32.04;95508.13;6121281;28;109466;-58
2023/12/27 04:04:40;;;;;;;8.20;7.33;;;;;;;22.17;32.01;95504.38;6131888;28;110081;-58
2023/12/27 04:07:43;;;;;;;6.93;6.33;;;;;;;22.16;32.00;95503.59;6136253;28;109069;-58
2023/12/27 04:10:46;;;;;;;7.83;7.10;;;;;;;22.16;32.04;95503.59;6135884;28;110198;-58
2023/12/27 04:13:51;;;;;;;7.50;6.80;;;;;;;22.17;31.93;95523.03;6126520;28;109413;-58
2023/12/27 04:16:54;;;;;;;7.80;7.00;;;;;;;22.16;32.00;95524.13;6135426;28;109157;-58
2023/12/27 04:19:57;;;;;;;7.67;6.90;;;;;;;22.16;31.83;95529.47;6121564;28;109101;-59
2023/12/27 04:23:00;;;;;;;8.10;7.40;;;;;;;22.15;31.94;95538.53;6116091;28;111009;-58
2023/12/27 04:26:04;;;;;;;7.40;6.63;;;;;;;22.17;31.48;95547.03;6125685;28;109112;-58
2023/12/27 04:29:09;;;;;;;7.30;6.60;;;;;;;22.16;31.87;95545.44;6125863;28;110343;-60
2023/12/27 04:32:12;;;;;;;8.10;6.87;;;;;;;22.15;31.33;95546.53;6134191;28;109275;-60
2023/12/27 04:35:15;;;;;;;7.40;6.70;;;;;;;22.18;31.75;95545.94;6132094;28;110090;-59
2023/12/27 04:38:18;;;;;;;7.87;7.00;;;;;;;22.16;32.07;95545.44;6108403;28;110207;-60
2023/12/27 04:41:21;;;;;;;7.80;7.00;;;;;;;22.16;31.81;95550.78;6112849;28;108912;-60
2023/12/27 04:44:26;;;;;;;8.93;7.77;;;;;;;22.15;31.78;95541.19;6112730;28;109092;-79
2023/12/27 04:47:29;;;;;;;9.07;6.60;;;;;;;22.16;31.57;95534.78;6120250;28;109241;-60
2023/12/27 04:50:32;;;;;;;8.13;7.33;;;;;;;22.20;32.17;95546.47;6135842;28;108998;-61
2023/12/27 04:53:35;;;;;;;9.13;7.40;;;;;;;22.19;31.80;95542.22;6122069;28;109167;-60
2023/12/27 04:56:38;;;;;;;9.50;7.53;;;;;;;22.16;31.91;95537.44;6117827;28;109261;-61
2023/12/27 04:59:43;;;;;;;7.43;6.73;;;;;;;22.14;32.06;95532.41;6102521;28;109110;-61
2023/12/27 05:02:46;;;;;;;7.20;6.50;;;;;;;22.16;32.01;95537.44;6122672;28;109180;-61
2023/12/27 05:05:49;;;;;;;7.40;6.43;;;;;;;22.14;31.72;95537.75;6129666;28;110169;-60
2023/12/27 05:08:52;;;;;;;7.03;6.40;;;;;;;22.15;31.95;95544.66;6112599;28;109039;-60
2023/12/27 05:11:55;;;;;;;7.57;6.70;;;;;;;22.14;31.51;95553.75;6110919;28;109062;-61
2023/12/27 05:15:00;;;;;;;7.50;6.70;;;;;;;22.15;31.64;95554.53;6114514;28;109561;-60
2023/12/27 05:18:03;;;;;;;8.27;7.40;;;;;;;22.14;31.40;95558.28;6111604;28;109084;-61
2023/12/27 05:21:08;;;;;;;7.00;6.40;;;;;;;22.13;31.73;95565.50;6107343;28;109441;-60
2023/12/27 05:24:11;;;;;;;7.83;7.13;;;;;;;22.14;31.39;95566.28;6127743;28;109023;-62
2023/12/27 05:27:14;;;;;;;7.90;7.10;;;;;;;22.14;31.27;95576.94;6133962;28;109104;-61
2023/12/27 05:30:18;;;;;;;7.97;6.83;;;;;;;22.13;31.34;95578.03;6116873;28;109771;-61
2023/12/27 05:33:23;;;;;;;7.43;6.73;;;;;;;22.11;31.74;95578.31;6114305;28;109956;-61
2023/12/27 05:36:27;;;;;;;8.00;7.30;;;;;;;22.10;31.88;95587.41;6112766;28;109319;-60
2023/12/27 05:39:30;;;;;;;7.77;6.90;;;;;;;22.11;31.77;95589.78;6131299;28;109431;-59
2023/12/27 05:42:33;;;;;;;7.63;6.83;;;;;;;22.13;31.57;95596.69;6128230;28;109034;-59
2023/12/27 05:45:38;;;;;;;9.50;7.47;;;;;;;22.10;31.37;95593.53;6107736;28;110419;-59
2023/12/27 05:48:41;;;;;;;8.57;7.77;;;;;;;22.13;31.51;95605.47;6135472;28;109185;-60
2023/12/27 05:51:48;;;;;;;8.30;7.10;;;;;;;22.16;31.35;95609.44;6136569;28;109005;-60
2023/12/27 05:54:52;;;;;;;8.43;7.43;;;;;;;22.21;31.99;95625.34;6129898;28;110074;-58
2023/12/27 05:57:55;;;;;;;10.70;7.07;;;;;;;22.21;31.85;95638.69;6127275;28;109025;-58
2023/12/27 06:01:00;;;;;;;7.93;6.87;;;;;;;22.21;31.56;95638.69;6135016;28;109977;-60
2023/12/27 06:04:03;;;;;;;10.97;9.97;;;;;;;22.23;31.91;95641.84;6126751;28;109009;-58
2023/12/27 06:07:06;;;;;;;11.90;10.20;;;;;;;22.28;31.99;95652.41;6117115;28;110155;-59
2023/12/27 06:10:10;;;;;;;12.27;11.03;;;;;;;22.23;31.87;95653.31;6137968;28;109395;-59
2023/12/27 06:13:13;;;;;;;13.30;11.40;;;;;;;22.20;31.35;95658.44;6130106;28;110111;-58
2023/12/27 06:16:17;;;;;;;11.37;10.27;;;;;;;22.19;31.29;95654.97;6126670;28;109282;-59
2023/12/27 06:19:20;;;;;;;13.43;11.30;;;;;;;22.19;31.81;95662.97;6121904;28;109499;-58
2023/12/27 06:22:24;;;;;;;12.23;11.13;;;;;;;22.18;31.69;95660.56;6119812;28;109647;-59
2023/12/27 06:25:27;;;;;;;11.37;10.20;;;;;;;22.20;31.94;95653.09;6124201;28;109581;-60
2023/12/27 06:28:30;;;;;;;12.93;11.70;;;;;;;22.19;32.09;95662.19;6116355;28;109068;-58
2023/12/27 06:31:35;;;;;;;12.20;11.10;;;;;;;22.24;32.04;95662.88;6120651;28;109416;-58
2023/12/27 06:34:38;;;;;;;11.23;10.13;;;;;;;22.34;32.09;95665.38;6129385;28;108806;-57
2023/12/27 06:37:41;;;;;;;11.37;10.23;;;;;;;22.49;31.66;95655.53;6131407;28;110123;-58
2023/12/27 06:40:47;;;;;;;10.90;9.53;;;;;;;22.60;31.67;95665.78;6118395;28;109873;-58
2023/12/27 06:43:50;;;;;;;10.27;9.23;;;;;;;22.72;31.78;95670.66;6117021;28;109137;-64
2023/12/27 06:46:54;;;;;;;10.83;9.20;;;;;;;22.76;31.89;95668.97;6123220;28;109257;-59
2023/12/27 06:49:57;;;;;;;10.67;9.67;;;;;;;22.82;31.73;95683.78;6134530;28;109135;-57
2023/12/27 06:53:00;;;;;;;10.60;9.63;;;;;;;22.85;31.76;95679.75;6126752;28;109090;-56
2023/12/27 06:56:04;;;;;;;10.47;8.93;;;;;;;22.80;32.25;95685.16;6127349;28;109199;-57
2023/12/27 06:59:07;;;;;;;10.60;9.50;;;;;;;22.72;31.79;95691.19;6131724;28;110202;-57
2023/12/27 07:02:12;;;;;;;17.07;12.43;;;;;;;22.03;30.98;95699.72;6127775;28;110207;-57
2023/12/27 07:05:15;;;;;;;16.40;11.70;;;;;;;22.55;30.72;95716.53;6112199;28;109953;-57
2023/12/27 07:08:18;;;;;;;12.60;10.70;;;;;;;23.22;29.61;95727.66;6132656;28;109042;-56
2023/12/27 07:11:21;;;;;;;12.90;10.73;;;;;;;23.52;29.72;95726.31;6116424;28;109100;-57
2023/12/27 07:14:24;;;;;;;12.23;10.10;;;;;;;23.72;29.42;95740.34;6132763;28;109580;-57
2023/12/27 07:17:29;;;;;;;13.00;10.13;;;;;;;23.63;30.00;95748.25;6131840;28;109595;-57
2023/12/27 07:20:32;;;;;;;11.80;10.43;;;;;;;23.83;29.51;95765.75;6136455;28;108968;-57
2023/12/27 07:23:35;;;;;;;13.27;10.30;;;;;;;23.93;29.43;95762.06;6134287;28;109075;-57
2023/12/27 07:26:39;;;;;;;11.37;10.20;;;;;;;23.89;29.69;95759.22;6110346;28;110011;-58
2023/12/27 07:29:42;;;;;;;11.70;9.37;;;;;;;23.74;30.04;95763.00;6129504;28;109113;-57
2023/12/27 07:32:46;;;;;;;13.20;10.07;;;;;;;23.49;30.35;95758.94;6119655;28;110198;-57
2023/12/27 07:35:50;;;;;;;11.43;9.77;;;;;;;23.48;30.38;95778.72;6122550;28;109174;-56
2023/12/27 07:38:53;;;;;;;12.37;10.10;;;;;;;23.48;30.62;95786.72;6115803;28;110221;-57
2023/12/27 07:41:56;;;;;;;9.77;8.77;;;;;;;23.41;31.15;95774.88;6122856;28;108927;-57
2023/12/27 07:44:59;;;;;;;10.47;9.33;;;;;;;23.37;30.65;95771.22;6134564;28;109231;-57
2023/12/27 07:48:04;;;;;;;11.67;9.30;;;;;;;23.34;31.02;95777.13;6138288;28;109083;-56
2023/12/27 07:51:08;;;;;;;9.80;8.53;;;;;;;23.36;31.15;95769.63;6108926;28;109446;-56
2023/12/27 07:54:12;;;;;;;12.40;9.10;;;;;;;23.29;31.54;95762.78;6118910;28;110837;-56
2023/12/27 07:57:15;;;;;;;18.20;9.60;;;;;;;23.20;31.68;95777.09;6134400;28;109646;-56
2023/12/27 08:00:19;;;;;;;10.70;9.07;;;;;;;23.12;31.74;95783.88;6112182;28;110034;-57
2023/12/27 08:03:24;;;;;;;10.37;8.70;;;;;;;23.07;31.84;95804.56;6112148;28;109823;-58
2023/12/27 08:06:27;;;;;;;11.87;9.80;;;;;;;23.04;32.22;95802.47;6113616;28;109383;-57
2023/12/27 08:09:31;;;;;;;15.07;9.40;;;;;;;22.98;32.00;95791.88;6113774;28;110273;-57
2023/12/27 08:12:34;;;;;;;11.40;9.10;;;;;;;22.96;32.41;95793.25;6102386;28;109286;-56
2023/12/27 08:15:37;;;;;;;17.30;9.80;;;;;;;22.92;32.45;95786.91;6113219;28;109026;-57
2023/12/27 08:18:43;;;;;;;12.37;8.73;;;;;;;22.91;32.62;95804.03;6113431;28;109335;-56
2023/12/27 08:21:46;;;;;;;11.60;9.20;;;;;;;22.88;32.67;95807.28;6112764;28;110247;-57
2023/12/27 08:24:49;;;;;;;11.30;8.80;;;;;;;22.87;32.36;95817.16;6102401;28;108974;-57
2023/12/27 08:27:52;;;;;;;10.47;8.77;;;;;;;22.86;32.08;95812.13;6113114;28;109104;-57
2023/12/27 08:30:55;;;;;;;10.23;9.13;;;;;;;22.85;32.28;95807.84;6113019;28;109181;-57
2023/12/27 08:34:02;;;;;;;9.57;8.53;;;;;;;22.83;32.24;95797.44;6108265;28;110033;-57
2023/12/27 08:37:06;;;;;;;10.80;8.03;;;;;;;22.81;32.11;95818.31;6107666;28;109662;-56
2023/12/27 08:40:10;;;;;;;10.97;8.43;;;;;;;22.80;32.59;95824.72;6112738;28;109263;-56
2023/12/27 08:43:14;;;;;;;9.60;8.50;;;;;;;22.77;32.65;95813.84;6112910;28;109058;-56
2023/12/27 08:46:17;;;;;;;9.93;8.90;;;;;;;22.77;32.57;95827.97;6101899;28;109412;-56
2023/12/27 08:49:21;;;;;;;13.13;9.10;;;;;;;22.77;32.05;95830.66;6112743;28;109133;-56
2023/12/27 08:52:25;;;;;;;9.30;8.30;;;;;;;22.74;32.23;95839.25;6111971;28;109094;-55
2023/12/27 08:55:28;;;;;;;9.10;7.87;;;;;;;22.73;32.38;95839.53;6112078;28;109038;-56
2023/12/27 08:58:32;;;;;;;11.50;8.90;;;;;;;22.72;32.68;95836.06;6103710;28;110047;-56
2023/12/27 09:01:36;;;;;;;10.97;9.53;;;;;;;22.70;32.64;95839.03;6113178;28;108661;-64
2023/12/27 09:04:41;;;;;;;9.17;8.27;;;;;;;22.71;32.55;95834.50;6112608;28;109591;-61
2023/12/27 09:07:44;;;;;;;9.77;8.33;;;;;;;22.69;32.22;95832.09;6111837;28;109755;-56
2023/12/27 09:10:47;;;;;;;9.20;8.30;;;;;;;22.69;32.08;95837.44;6103395;28;109335;-56
2023/12/27 09:13:50;;;;;;;8.13;7.33;;;;;;;22.70;32.15;95843.56;6112609;28;109966;-56
2023/12/27 09:16:53;;;;;;;8.83;7.70;;;;;;;22.69;32.10;95828.66;6112481;28;110305;-55
2023/12/27 09:19:58;;;;;;;9.00;8.10;;;;;;;22.69;32.56;95817.97;6104185;28;109991;-56
2023/12/27 09:23:01;;;;;;;8.83;7.57;;;;;;;22.68;32.67;95814.53;6111014;28;110125;-56
2023/12/27 09:26:12;;;;;;;7.60;6.90;;;;;;;22.69;32.58;95812.66;6112034;28;109318;-56
2023/12/27 09:29:15;;;;;;;9.60;8.53;;;;;;;22.72;31.99;95804.06;6112412;28;109336;-56
2023/12/27 09:32:18;;;;;;;9.00;8.10;;;;;;;22.70;32.22;95795.56;6101206;28;109382;-55
2023/12/27 09:35:22;;;;;;;10.80;7.73;;;;;;;22.73;32.17;95794.16;6111902;28;109159;-56
2023/12/27 09:38:26;;;;;;;9.73;7.70;;;;;;;22.72;32.04;95788.03;6111748;28;109043;-56
2023/12/27 09:41:29;;;;;;;8.43;7.33;;;;;;;22.75;32.38;95781.31;6112221;28;110203;-56
2023/12/27 09:44:35;;;;;;;8.23;7.37;;;;;;;22.75;32.45;95781.31;6106822;28;109446;-55
2023/12/27 09:47:39;;;;;;;7.40;6.70;;;;;;;22.77;32.41;95765.81;6116193;28;109144;-56
2023/12/27 09:50:44;;;;;;;7.57;6.87;;;;;;;22.77;32.05;95763.16;6116015;28;108643;-56
2023/12/27 09:53:48;;;;;;;7.90;6.67;;;;;;;22.79;32.56;95766.31;6110141;28;109076;-56
2023/12/27 09:56:51;;;;;;;8.47;7.57;;;;;;;22.77;32.01;95758.59;6110085;28;109346;-56
2023/12/27 09:59:56;;;;;;;8.77;7.00;;;;;;;22.80;32.68;95762.56;6115883;28;109138;-73
2023/12/27 10:03:04;;;;;;;8.93;6.43;;;;;;;22.80;32.54;95766.03;6115799;28;109094;-56
2023/12/27 10:06:26;;;;;;;8.20;6.60;;;;;;;22.78;32.51;95767.41;6105044;28;109151;-55
2023/12/27 10:09:29;;;;;;;8.10;6.70;;;;;;;22.77;32.49;95766.59;6116615;28;111508;-56
2023/12/27 10:12:33;;;;;;;6.87;6.10;;;;;;;22.77;32.35;95777.28;6115896;28;108719;-58
2023/12/27 10:15:36;;;;;;;10.50;5.77;;;;;;;22.73;32.36;95773.63;6116188;28;109693;-56
2023/12/27 10:18:39;;;;;;;16.80;6.83;;;;;;;22.75;32.35;95778.66;6115724;28;108876;-56
2023/12/27 10:21:44;;;;;;;7.33;6.00;;;;;;;22.82;32.97;95785.19;6130136;28;109039;-59
2023/12/27 10:24:48;;;;;;;8.23;6.63;;;;;;;22.85;32.66;95768.63;6131447;28;109103;-60
2023/12/27 10:27:51;;;;;;;8.13;6.90;;;;;;;22.81;32.93;95780.16;6129112;28;110215;-59
2023/12/27 10:30:54;;;;;;;6.50;5.20;;;;;;;22.51;32.38;95776.06;6119130;28;110406;-59
2023/12/27 10:34:02;;;;;;;6.47;5.10;;;;;;;22.11;32.04;95755.03;6134266;28;109037;-59
2023/12/27 10:37:11;;;;;;;7.13;5.07;;;;;;;22.12;32.13;95729.16;6138203;28;109369;-61
2023/12/27 10:40:15;;;;;;;6.00;5.40;;;;;;;22.38;32.14;95734.94;6119882;28;109213;-60
2023/12/27 10:43:18;;;;;;;10.57;6.80;;;;;;;22.53;31.81;95737.38;6119455;28;109285;-60
2023/12/27 10:46:22;;;;;;;9.80;6.43;;;;;;;22.64;32.36;95732.66;6119523;28;109062;-59
2023/12/27 10:49:27;;;;;;;11.97;8.10;;;;;;;22.73;32.78;95738.13;6133406;28;108801;-59
2023/12/27 10:52:33;;;;;;;8.13;5.87;;;;;;;22.85;33.12;95731.25;6120299;28;108945;-59
2023/12/27 10:55:38;;;;;;;10.00;6.13;;;;;;;22.78;33.53;95719.38;6126346;28;110213;-67
2023/12/27 10:58:43;;;;;;;7.97;5.47;;;;;;;22.76;33.22;95737.56;6131332;28;109386;-60
2023/12/27 11:01:48;;;;;;;9.17;6.20;;;;;;;22.79;33.25;95744.97;6109726;28;109047;-60
2023/12/27 11:04:53;;;;;;;8.03;5.67;;;;;;;22.86;33.72;95740.06;6129709;28;109262;-60
2023/12/27 11:07:59;;;;;;;9.27;6.60;;;;;;;22.93;33.33;95740.47;6137141;28;109354;-58
2023/12/27 11:11:05;;;;;;;10.00;6.40;;;;;;;22.98;33.25;95743.81;6137534;28;109072;-61
2023/12/27 11:14:11;;;;;;;7.23;5.50;;;;;;;23.04;33.18;95755.22;6121053;28;109374;-69
2023/12/27 11:17:16;;;;;;;6.53;5.53;;;;;;;23.08;33.56;95748.19;6126961;28;109266;-60
2023/12/27 11:20:20;;;;;;;7.83;5.30;;;;;;;23.10;33.26;95754.03;6134507;28;109242;-60
2023/12/27 11:23:25;;;;;;;11.43;6.07;;;;;;;23.10;33.76;95746.03;6137784;28;111304;-60
2023/12/27 11:26:32;;;;;;;9.73;5.70;;;;;;;23.13;33.71;95742.75;6124948;28;110327;-60
2023/12/27 11:29:37;;;;;;;6.73;5.30;;;;;;;23.13;34.36;95739.28;6134690;28;109606;-60
2023/12/27 11:32:42;;;;;;;7.37;4.70;;;;;;;23.12;33.78;95746.50;6135727;28;109268;-62
2023/12/27 11:35:47;;;;;;;7.20;5.10;;;;;;;23.17;34.23;95748.28;6129437;28;110049;-56
2023/12/27 11:38:51;;;;;;;8.97;6.03;;;;;;;23.16;33.98;95752.84;6133234;28;110153;-55
2023/12/27 11:41:55;;;;;;;6.87;4.87;;;;;;;23.17;34.69;95751.75;6137725;28;110143;-56
2023/12/27 11:44:58;;;;;;;6.67;4.80;;;;;;;23.08;34.45;95750.88;6131816;28;110125;-56
2023/12/27 11:48:03;;;;;;;9.30;5.87;;;;;;;23.03;34.83;95756.31;6124649;28;109544;-56
2023/12/27 11:51:25;;;;;;;8.80;7.90;;;;;;;23.01;35.66;95753.09;6124555;28;109073;-56
2023/12/27 11:54:29;;;;;;;11.20;9.30;;;;;;;23.01;35.50;95755.78;6118082;28;111054;-57
2023/12/27 11:57:34;;;;;;;11.13;10.00;;;;;;;22.98;35.46;95759.84;6132191;28;109409;-57
2023/12/27 12:00:38;;;;;;;13.43;9.50;;;;;;;22.98;35.65;95761.72;6120956;28;109259;-55
2023/12/27 12:03:42;;;;;;;12.20;9.00;;;;;;;23.01;35.55;95766.47;6136216;28;109141;-56
2023/12/27 12:07:20;;;;;;;12.60;8.43;;;;;;;23.00;35.10;95773.69;6113476;28;109380;-55
2023/12/27 12:10:27;;;;;;;9.00;8.10;;;;;;;22.99;35.49;95772.09;6112912;28;109449;-57
2023/12/27 12:13:31;;;;;;;9.27;8.13;;;;;;;22.98;35.93;95775.06;6135042;28;109371;-56
2023/12/27 12:16:36;;;;;;;9.93;8.00;;;;;;;22.99;35.68;95772.09;6129923;28;110175;-55
2023/12/27 12:19:40;;;;;;;11.23;9.40;;;;;;;23.01;35.72;95774.47;6126329;28;110205;-57
2023/12/27 12:22:44;;;;;;;11.83;9.37;;;;;;;22.99;36.08;95773.97;6115511;28;110324;-55
2023/12/27 12:25:49;;;;;;;10.87;9.73;;;;;;;22.98;35.79;95780.41;6119468;28;109278;-56
2023/12/27 12:28:56;;;;;;;12.97;10.33;;;;;;;22.99;35.75;95782.78;6129026;28;109368;-55
2023/12/27 12:31:59;;;;;;;10.77;9.43;;;;;;;22.98;36.44;95786.53;6112934;28;109247;-54
2023/12/27 12:35:03;;;;;;;9.90;9.00;;;;;;;23.24;35.76;95783.44;6117857;28;109166;-64
2023/12/27 12:38:07;;;;;;;13.70;9.70;;;;;;;23.43;35.64;95788.72;6131590;28;109496;-53
2023/12/27 12:41:12;;;;;;;10.83;8.93;;;;;;;23.52;35.68;95792.28;6135006;28;109696;-55
2023/12/27 12:44:15;;;;;;;10.90;8.47;;;;;;;23.60;35.46;95787.03;6126223;28;109330;-67
2023/12/27 12:47:19;;;;;;;9.33;8.00;;;;;;;23.62;35.55;95792.09;6132443;28;110178;-54
2023/12/27 12:50:22;;;;;;;10.57;8.40;;;;;;;23.67;35.39;95791.19;6135855;28;109915;-55
2023/12/27 12:53:25;;;;;;;18.83;8.10;;;;;;;23.67;35.94;95799.19;6135724;28;109132;-54
2023/12/27 12:56:30;;;;;;;13.00;7.93;;;;;;;23.66;35.48;95795.75;6101864;28;109835;-53
2023/12/27 12:59:34;;;;;;;8.73;7.47;;;;;;;23.67;36.12;95801.88;6113278;28;109170;-53
2023/12/27 13:02:38;;;;;;;8.73;7.83;;;;;;;23.67;36.07;95796.53;6125195;28;109123;-54
2023/12/27 13:05:42;;;;;;;8.57;7.67;;;;;;;23.66;36.27;95803.75;6113359;28;109061;-53
2023/12/27 13:08:50;;;;;;;9.53;7.90;;;;;;;23.67;36.15;95801.88;6121846;28;109960;-53
2023/12/27 13:11:54;;;;;;;8.20;7.07;;;;;;;23.69;35.84;95795.16;6130111;28;109384;-53
2023/12/27 13:14:59;;;;;;;7.57;6.80;;;;;;;23.70;36.33;95795.97;6123903;28;109128;-53
2023/12/27 13:18:03;;;;;;;7.60;6.80;;;;;;;23.70;36.34;95795.97;6106521;28;109450;-53
2023/12/27 13:21:08;;;;;;;7.87;6.53;;;;;;;23.70;35.99;95794.09;6117176;28;109309;-53
2023/12/27 13:24:11;;;;;;;7.33;6.60;;;;;;;23.68;36.32;95804.25;6129692;28;109852;-52
2023/12/27 13:27:15;;;;;;;8.63;7.20;;;;;;;23.66;36.43;95800.28;6111484;28;109254;-53
2023/12/27 13:30:18;;;;;;;6.90;6.07;;;;;;;23.68;36.35;95790.09;6108500;28;109039;-53
2023/12/27 13:33:22;;;;;;;8.40;6.93;;;;;;;23.66;36.56;95795.75;6136331;28;110041;-53
2023/12/27 13:36:28;;;;;;;7.27;6.47;;;;;;;23.67;36.19;95794.66;6128291;28;109291;-53
2023/12/27 13:39:31;;;;;;;6.87;6.07;;;;;;;23.62;36.54;95804.66;6119358;28;109115;-54
2023/12/27 13:42:36;;;;;;;8.33;6.23;;;;;;;23.66;36.83;95806.44;6114478;28;110492;-53
2023/12/27 13:45:39;;;;;;;7.17;6.47;;;;;;;23.72;36.68;95810.59;6125477;28;108977;-53
2023/12/27 13:48:42;;;;;;;7.73;6.00;;;;;;;23.74;36.94;95807.63;6135910;28;109287;-53
2023/12/27 13:51:46;;;;;;;6.60;5.63;;;;;;;23.73;36.82;95812.19;6114912;28;110034;-54
2023/12/27 13:54:49;;;;;;;7.10;6.10;;;;;;;23.75;37.01;95817.22;6119255;28;109342;-53
2023/12/27 13:57:54;;;;;;;7.00;5.90;;;;;;;23.74;37.10;95819.13;6113111;28;109426;-55
2023/12/27 14:00:59;;;;;;;6.70;5.53;;;;;;;23.64;36.95;95813.16;6116609;28;109313;-55
2023/12/27 14:04:03;;;;;;;9.77;6.20;;;;;;;23.54;36.70;95806.94;6126036;28;110144;-55
2023/12/27 14:07:06;;;;;;;7.33;6.33;;;;;;;23.49;36.52;95808.91;6115039;28;109143;-55
2023/12/27 14:10:10;;;;;;;6.43;5.70;;;;;;;23.44;36.82;95803.66;6122153;28;110087;-53
2023/12/27 14:13:14;;;;;;;7.70;6.00;;;;;;;23.50;36.48;95813.94;6115923;28;109195;-53